ADDS METAR Data INFO
IDs: Format: Raw Decoded Include TAF

Data at: 0718 UTC 24 Jun 2018

KINL 240655Z AUTO 10012KT 10SM SCT013 SCT018 18/16 A2991 RMK AO2 SLP127 T01780161 $
KINL 240653Z AUTO 09011G16KT 10SM SCT015 18/16 A2991 RMK AO2 $
KINL 240622Z AUTO 08006KT 10SM BKN014 OVC100 18/17 A2990 RMK AO2 T01830172 $
KINL 240555Z AUTO 09008KT 10SM SCT100 18/17 A2990 RMK AO2 SLP122 60000 T01830172 10200 20178 402610178 53018 $
KINL 240455Z AUTO 08005KT 10SM FEW010 SCT100 18/18 A2988 RMK AO2 SLP117 T01830178 $
KINL 240355Z AUTO 06005KT 10SM FEW095 19/18 A2986 RMK AO2 SLP108 T01890178 $
KINL 240255Z AUTO 06005KT 10SM BKN100 19/18 A2984 RMK AO2 SLP103 60000 T01890178 53017 $
KINL 240155Z AUTO 07007KT 10SM SCT100 19/18 A2982 RMK AO2 SLP098 T01890183 $
KINL 240055Z AUTO 00000KT 10SM CLR 19/17 A2981 RMK AO2 RAE16 SLP093 P0000 T01940172 $
KINL 232355Z AUTO 12008KT 10SM -RA FEW075 BKN095 OVC120 20/18 A2979 RMK AO2 RAB16 TSE14 SLP088 P0026 60026 T02000178 10261 20194 50002 $
KINL 232342Z AUTO 11010KT 3SM RA BR FEW075 SCT090 OVC120 20/18 A2980 RMK AO2 LTG DSNT E RAB16 TSE14 P0026 T02000183 $
KINL 232331Z AUTO 12011KT 1SM VCTS +RA BR FEW043 BKN090 OVC110 19/18 A2980 RMK AO2 LTG DSNT E RAB16 TSE14 P0019 T01940183 $
KINL 232322Z AUTO 11014G19KT 1 3/4SM +RA FEW034 BKN080 OVC120 21/17 A2980 RMK AO2 LTG DSNT E RAB16 TSE14 P0006 T02060172 $
KINL 232320Z AUTO 11011KT 3SM RA FEW034 BKN080 OVC120 21/17 A2980 RMK AO2 LTG DSNT E RAB16 TSE14 P0001 T02110172 $
KINL 232255Z AUTO 07009G17KT 10SM TS SCT032 BKN040 OVC095 23/17 A2980 RMK AO2 LTG DSNT E AND SE TSB28E49B51 SLP089 T02280167 $
KINL 232234Z AUTO 09006KT 10SM TS SCT036 BKN095 25/18 A2978 RMK AO2 LTG DSNT E AND SE TSB28 T02500178 $
KINL 232218Z AUTO 08007KT 10SM VCTS SCT036 SCT110 26/18 A2978 RMK AO2 LTG DSNT NE AND SE T02560178 $
KINL 232155Z AUTO 09005KT 10SM SCT120 26/18 A2979 RMK AO2 LTG DSNT SE AND S SLP083 T02610183 $
KINL 232055Z AUTO 09005KT 10SM OVC120 24/19 A2978 RMK AO2 LTG DSNT SE-SW SLP083 T02440189 55000
KINL 231955Z AUTO 08005KT 10SM CLR 24/19 A2978 RMK AO2 LTG DSNT S SLP083 T02390189
KINL 231855Z AUTO 06004KT 10SM CLR 23/18 A2978 RMK AO2 LTG DSNT SW SLP083 T02330183
KINL 231755Z AUTO 04007KT 10SM FEW025 24/18 A2978 RMK AO2 LTG DSNT SW SLP082 T02440183 10250 20183 51005 $
KINL 231655Z AUTO 04010KT 10SM CLR 24/18 A2978 RMK AO2 LTG DSNT W SLP082 T02440183 $
KINL 231555Z AUTO 03007KT 10SM CLR 24/18 A2979 RMK AO2 SLP085 T02390183 $
KINL 231455Z AUTO 11003KT 10SM CLR 23/17 A2977 RMK AO2 SLP077 T02280172 56000 $
KINL 231355Z AUTO 00000KT 10SM BKN120 21/17 A2977 RMK AO2 SLP079 T02060167 $
KINL 231255Z AUTO 22006KT 10SM FEW120 19/17 A2976 RMK AO2 SLP075 T01890167 $
KINL 231155Z AUTO VRB03KT 10SM CLR 18/17 A2977 RMK AO2 RAB25E52 SLP077 P0000 60000 T01830167 10206 20178 56010 $
KINL 231055Z AUTO 00000KT 10SM OVC110 18/17 A2977 RMK AO2 RAB22E34 SLP080 P0000 T01830167 $
KINL 230955Z AUTO 17003KT 10SM OVC100 18/17 A2979 RMK AO2 RAB09E18 SLP085 P0000 T01830167 $
KINL 230855Z AUTO 07004KT 10SM CLR 19/17 A2980 RMK AO2 SLP086 T01890167 56003 $
KINL 230755Z AUTO 03003KT 10SM CLR 19/17 A2981 RMK AO2 SLP089 T01940167 $
KINL 230655Z AUTO VRB05KT 10SM FEW100 19/17 A2980 RMK AO2 LTG DSNT N SLP087 T01940167 $
KINL 230555Z AUTO VRB04KT 10SM BKN120 20/17 A2981 RMK AO2 RAB17E34 SLP089 P0000 60000 T02000172 10261 20200 403060128 55000 $
KINL 230455Z AUTO 13007KT 10SM OVC100 21/16 A2981 RMK AO2 SLP089 T02060156 $
KINL 230355Z AUTO 21004KT 10SM FEW090 BKN110 21/17 A2979 RMK AO2 SLP084 T02060167 $
KINL 230255Z AUTO 10SM CLR 21/15 A2981 RMK AO2 SLP091 T02110150 51006 $
KINL 230155Z AUTO VRB05KT 10SM BKN100 23/17 A2980 RMK AO2 LTG DSNT SW SLP089 T02280172 $
KINL 230055Z AUTO 23004KT 10SM FEW110 23/17 A2980 RMK AO2 SLP089 T02330167 $
KINL 222355Z AUTO 00000KT 10SM CLR 26/17 A2979 RMK AO2 LTG DSNT S AND W SLP085 60000 T02610167 10306 20244 58011 $
KINL 222255Z AUTO 27008KT 10SM FEW060 FEW080 24/15 A2980 RMK AO2 LTG DSNT S RAB29E42 SLP091 P0000 T02440150
KINL 222155Z AUTO 29003KT 10SM SCT075 28/17 A2981 RMK AO2 SLP092 T02830172
KINL 222055Z AUTO 00000KT 10SM SCT090 SCT120 29/18 A2982 RMK AO2 SLP095 T02890178 58017
KINL 221955Z AUTO VRB04KT 10SM CLR 29/16 A2984 RMK AO2 SLP102 T02940161